Terminal Aerodrome Forecast
Issued by NWS Caribou, ME

Home | Current Version | Previous Version | Text Only | Print | Product List | Glossary On
Versions: 1 2 3 4 5 6 7 8 9 10 11 12 13 14 15 16 17 18 19 20 21 22 23
000
FTUS41 KCAR 051734
TAFCAR
TAF
KCAR 051734Z 0518/0618 06008KT P6SM OVC025
     FM052000 07009KT P6SM OVC035
     FM060200 04009KT P6SM OVC025
     FM060400 03009KT P6SM OVC015
     FM060600 02010KT P6SM OVC008
     FM060800 01009KT P6SM OVC015
     FM061100 01009KT P6SM BKN025=

USA.gov is the U.S. government's official web portal to all federal, state and local government web resources and services.